Time;durP1;ratioP1;P1;durP2;ratioP2;P2;SDS_P1;SDS_P2;PMS_P1;PMS_P2;Temp;Humidity;BMP_temperature;BMP_pressure;BME280_temperature;BME280_humidity;BME280_pressure;Samples;Min_cycle;Max_cycle;Signal;HPM_P1;HPM_P2
2023/05/29 00:02:07;;;;;;;17.58;2.17;;;;;;;7.33;49.57;102498.56;5077623;28;20534;-72
2023/05/29 00:04:33;;;;;;;5.82;0.90;;;;;;;7.20;48.91;102495.13;5076685;28;21122;-73
2023/05/29 00:06:58;;;;;;;7.00;0.88;;;;;;;7.14;49.38;102502.91;5083295;28;20107;-74
2023/05/29 00:09:24;;;;;;;13.38;1.00;;;;;;;7.38;48.15;102502.06;5075817;28;20074;-75
2023/05/29 00:11:52;;;;;;;8.15;1.33;;;;;;;7.35;47.93;102503.78;5090626;27;20035;-72
2023/05/29 00:14:22;;;;;;;10.27;0.68;;;;;;;7.38;47.42;102512.47;5074053;28;20139;-74
2023/05/29 00:16:50;;;;;;;15.43;1.42;;;;;;;7.26;47.31;102508.09;5089409;27;20067;-72
2023/05/29 00:19:17;;;;;;;4.90;0.95;;;;;;;7.22;47.59;102506.41;5077064;28;20044;-73
2023/05/29 00:21:43;;;;;;;8.55;1.10;;;;;;;7.30;47.42;102499.44;5073697;28;20032;-73
2023/05/29 00:24:08;;;;;;;7.60;0.93;;;;;;;7.35;47.13;102501.19;5076737;28;20278;-74
2023/05/29 00:26:34;;;;;;;8.63;0.60;;;;;;;7.39;46.55;102497.72;5075226;28;20028;-74
2023/05/29 00:29:00;;;;;;;8.85;1.52;;;;;;;7.29;47.07;102496.84;5076439;27;20039;-73
2023/05/29 00:31:26;;;;;;;9.25;1.15;;;;;;;7.29;47.21;102502.91;5075169;28;20035;-74
2023/05/29 00:33:51;;;;;;;9.90;0.80;;;;;;;7.22;47.54;102511.59;5059254;28;20132;-71
2023/05/29 00:36:17;;;;;;;9.27;0.73;;;;;;;7.20;47.42;102510.72;5075586;28;20035;-71
2023/05/29 00:38:43;;;;;;;5.30;0.65;;;;;;;7.06;47.85;102515.03;5058817;28;20198;-70
2023/05/29 00:41:14;;;;;;;10.10;0.52;;;;;;;7.26;47.65;102518.50;5106518;27;20071;-70
2023/05/29 00:43:40;;;;;;;9.32;1.40;;;;;;;7.35;47.27;102522.84;5070791;27;20042;-70
2023/05/29 00:46:06;;;;;;;12.38;0.93;;;;;;;7.38;47.51;102522.88;5067625;28;20040;-70
2023/05/29 00:48:31;;;;;;;9.23;0.70;;;;;;;7.35;47.43;102521.97;5074762;27;20064;-69
2023/05/29 00:50:57;;;;;;;6.53;0.70;;;;;;;7.41;47.68;102514.19;5073928;28;20031;-69
2023/05/29 00:53:23;;;;;;;10.18;0.75;;;;;;;7.38;47.37;102515.06;5078018;28;20711;-69
2023/05/29 00:55:49;;;;;;;5.53;1.55;;;;;;;7.48;47.59;102515.91;5062902;28;20028;-70
2023/05/29 00:58:15;;;;;;;6.20;0.82;;;;;;;7.50;47.21;102519.38;5066416;27;20074;-69
2023/05/29 01:00:41;;;;;;;8.40;1.08;;;;;;;7.42;47.26;102510.69;5095568;27;20107;-71
2023/05/29 01:03:07;;;;;;;8.80;0.80;;;;;;;7.09;48.13;102510.72;5075577;28;20434;-69
2023/05/29 01:05:35;;;;;;;13.25;1.13;;;;;;;7.19;48.20;102508.13;5078126;28;20065;-68
2023/05/29 01:08:02;;;;;;;9.35;1.00;;;;;;;7.18;48.58;102503.78;5077403;28;20035;-70
2023/05/29 01:10:28;;;;;;;10.13;1.50;;;;;;;7.15;48.44;102509.84;5080550;28;20043;-69
2023/05/29 01:13:06;;;;;;;14.18;1.23;;;;;;;7.14;48.44;102518.50;5075272;28;20685;-69
2023/05/29 01:15:54;;;;;;;6.07;0.77;;;;;;;7.39;47.87;102521.97;5096130;27;20061;-71
2023/05/29 01:18:43;;;;;;;5.40;0.90;;;;;;;7.47;47.30;102515.06;5085874;27;20078;-74
2023/05/29 01:21:38;;;;;;;9.38;0.75;;;;;;;7.26;48.49;102523.72;5080915;28;20035;-73
2023/05/29 01:24:23;;;;;;;3.53;0.73;;;;;;;7.58;47.83;102525.47;5077512;28;20034;-73
2023/05/29 01:26:55;;;;;;;12.45;1.08;;;;;;;7.62;47.48;102516.78;5084660;28;20500;-71
2023/05/29 01:29:31;;;;;;;6.15;0.88;;;;;;;7.65;47.30;102516.78;5075436;28;20048;-70
2023/05/29 01:31:58;;;;;;;6.30;0.68;;;;;;;7.79;47.27;102510.69;5076278;28;20032;-69
2023/05/29 01:34:24;;;;;;;8.30;0.93;;;;;;;7.85;46.77;102523.72;5077906;28;20067;-69
2023/05/29 01:36:50;;;;;;;8.93;0.95;;;;;;;7.82;47.00;102518.50;5078649;28;20209;-69
2023/05/29 01:39:16;;;;;;;6.00;0.88;;;;;;;7.74;47.08;102531.53;5085686;28;20480;-69
2023/05/29 01:41:44;;;;;;;5.38;1.02;;;;;;;7.69;47.34;102535.84;5078052;28;20119;-69
2023/05/29 01:44:11;;;;;;;11.25;1.02;;;;;;;7.78;46.94;102528.06;5109002;27;20044;-69
2023/05/29 01:46:39;;;;;;;5.15;0.95;;;;;;;7.60;47.41;102531.56;5076980;28;20031;-69
2023/05/29 01:49:07;;;;;;;10.15;1.25;;;;;;;7.78;47.21;102532.38;5108230;27;20036;-69
2023/05/29 01:51:33;;;;;;;7.82;0.50;;;;;;;7.74;47.23;102532.41;5075187;28;20024;-69
2023/05/29 01:54:00;;;;;;;8.73;1.13;;;;;;;7.76;47.33;102540.22;5084795;28;20795;-69
2023/05/29 01:56:27;;;;;;;8.48;1.10;;;;;;;7.77;47.13;102531.50;5080864;27;20038;-69
2023/05/29 01:58:54;;;;;;;7.93;0.95;;;;;;;7.84;47.40;102529.78;5073994;27;20166;-68
2023/05/29 02:01:22;;;;;;;13.45;0.85;;;;;;;7.79;47.32;102536.72;5093883;27;20104;-69
2023/05/29 02:03:47;;;;;;;9.30;1.27;;;;;;;7.83;47.36;102538.47;5076724;28;20063;-68
2023/05/29 02:06:12;;;;;;;10.55;1.38;;;;;;;7.95;47.58;102530.59;5077973;28;20184;-68
2023/05/29 02:08:38;;;;;;;6.25;0.70;;;;;;;8.09;46.80;102534.06;5077754;27;20114;-69
2023/05/29 02:11:04;;;;;;;3.92;0.73;;;;;;;8.08;47.01;102526.25;5079583;28;20039;-69
2023/05/29 02:13:29;;;;;;;7.78;1.05;;;;;;;8.05;47.29;102529.72;5063073;28;20051;-68
2023/05/29 02:15:55;;;;;;;10.98;1.20;;;;;;;8.05;47.19;102532.31;5077572;28;20267;-69
2023/05/29 02:18:22;;;;;;;9.02;1.80;;;;;;;8.03;47.00;102533.22;5076943;27;20668;-69
2023/05/29 02:20:47;;;;;;;9.02;0.75;;;;;;;8.12;46.89;102533.19;5092877;27;20114;-73
2023/05/29 02:23:20;;;;;;;9.98;1.10;;;;;;;8.18;46.94;102537.47;5061621;28;20044;-74
2023/05/29 02:25:46;;;;;;;9.55;0.85;;;;;;;8.24;47.08;102535.72;5068623;28;20093;-71
2023/05/29 02:28:12;;;;;;;4.28;0.82;;;;;;;8.24;46.71;102538.31;5058880;28;20483;-70
2023/05/29 02:30:39;;;;;;;7.70;0.75;;;;;;;8.27;46.69;102529.63;5079585;27;20037;-70
2023/05/29 02:33:06;;;;;;;9.40;0.50;;;;;;;8.27;46.41;102532.25;5078350;28;20040;-72
2023/05/29 02:35:33;;;;;;;14.02;1.05;;;;;;;8.23;46.53;102525.34;5064233;28;20704;-73
2023/05/29 02:37:58;;;;;;;15.05;0.80;;;;;;;8.24;46.49;102521.84;5067705;28;20044;-72
2023/05/29 02:40:24;;;;;;;10.40;1.85;;;;;;;8.34;46.27;102520.94;5073751;28;20040;-71
2023/05/29 02:42:50;;;;;;;15.23;1.52;;;;;;;8.30;46.18;102516.63;5060862;27;20525;-73
2023/05/29 02:45:16;;;;;;;9.02;1.25;;;;;;;8.16;46.26;102511.47;5065840;28;20097;-72
2023/05/29 02:47:42;;;;;;;9.85;0.70;;;;;;;8.26;46.40;102514.88;5075030;27;20093;-72
2023/05/29 02:50:08;;;;;;;11.50;1.13;;;;;;;8.25;46.49;102519.25;5079037;27;20395;-71
2023/05/29 02:52:34;;;;;;;11.48;0.90;;;;;;;8.22;46.00;102510.56;5089673;27;20044;-71
2023/05/29 02:55:00;;;;;;;10.35;1.05;;;;;;;8.14;45.80;102502.78;5054519;28;20031;-72
2023/05/29 02:57:25;;;;;;;10.30;1.15;;;;;;;8.05;46.43;102498.47;5042818;28;20133;-72
2023/05/29 02:59:51;;;;;;;13.70;0.88;;;;;;;8.04;46.82;102514.94;5074293;28;20031;-70
2023/05/29 03:02:17;;;;;;;8.43;1.33;;;;;;;7.95;46.90;102514.97;5073993;27;20455;-71
2023/05/29 03:04:45;;;;;;;8.07;1.33;;;;;;;8.05;46.38;102526.25;5061338;28;20086;-71
2023/05/29 03:07:12;;;;;;;5.93;0.88;;;;;;;7.98;46.50;102525.41;5055482;28;20631;-71
2023/05/29 03:09:38;;;;;;;6.50;1.02;;;;;;;7.90;46.98;102521.94;5074109;28;20024;-72
2023/05/29 03:12:04;;;;;;;11.57;1.15;;;;;;;7.94;46.67;102518.47;5066641;28;20089;-73
2023/05/29 03:14:35;;;;;;;15.45;1.13;;;;;;;7.97;46.68;102523.66;5040003;28;20044;-71
2023/05/29 03:17:05;;;;;;;6.93;0.77;;;;;;;7.94;46.75;102529.75;5045592;28;20117;-71
2023/05/29 03:19:30;;;;;;;15.30;0.88;;;;;;;8.06;46.64;102528.84;5060476;27;20048;-77
2023/05/29 03:21:56;;;;;;;9.18;1.15;;;;;;;8.20;46.35;102528.78;5062785;28;20132;-73
2023/05/29 03:24:23;;;;;;;12.45;1.58;;;;;;;8.13;45.94;102524.47;5048250;28;20093;-72
2023/05/29 03:26:49;;;;;;;8.35;0.60;;;;;;;8.12;45.73;102528.84;5062461;28;20097;-72
2023/05/29 03:29:17;;;;;;;11.25;1.08;;;;;;;8.04;46.21;102541.00;5064275;28;20070;-74
2023/05/29 03:31:43;;;;;;;8.77;1.00;;;;;;;8.09;46.38;102539.28;5105859;27;20032;-73
2023/05/29 03:34:13;;;;;;;12.45;0.82;;;;;;;8.11;46.10;102534.94;5059051;27;20131;-71
2023/05/29 03:36:41;;;;;;;11.38;1.45;;;;;;;8.24;45.92;102529.66;5053661;28;20725;-72
2023/05/29 03:39:07;;;;;;;6.63;0.65;;;;;;;8.31;45.58;102533.97;5069555;28;20135;-69
2023/05/29 03:41:33;;;;;;;13.98;1.35;;;;;;;8.11;46.31;102532.31;5074983;28;20423;-69
2023/05/29 03:43:58;;;;;;;15.73;0.75;;;;;;;8.34;45.77;102528.75;5066685;27;20489;-66
2023/05/29 03:46:27;;;;;;;11.18;0.65;;;;;;;8.20;46.08;102538.34;5055877;28;20063;-67
2023/05/29 03:48:53;;;;;;;8.20;1.65;;;;;;;8.23;45.50;102536.59;5061975;28;20088;-67
2023/05/29 03:51:18;;;;;;;10.25;0.77;;;;;;;8.35;45.80;102530.47;5052413;28;21469;-68
2023/05/29 03:53:44;;;;;;;14.10;1.63;;;;;;;8.37;45.65;102531.34;5058120;28;20186;-68
2023/05/29 03:56:09;;;;;;;7.55;0.88;;;;;;;8.14;46.05;102523.63;5056854;28;20485;-68
2023/05/29 03:58:36;;;;;;;8.30;1.23;;;;;;;8.47;45.43;102525.22;5056808;28;20234;-69
2023/05/29 04:01:02;;;;;;;12.35;1.38;;;;;;;8.50;45.17;102538.22;5104925;27;20115;-69
2023/05/29 04:03:29;;;;;;;9.85;1.75;;;;;;;8.48;45.23;102539.13;5072736;27;20046;-66
2023/05/29 04:05:55;;;;;;;8.77;1.38;;;;;;;8.41;45.33;102535.66;5066828;28;20036;-68
2023/05/29 04:08:21;;;;;;;4.82;1.10;;;;;;;8.41;45.36;102546.09;5050748;28;20044;-69
2023/05/29 04:10:46;;;;;;;10.18;0.95;;;;;;;8.32;45.46;102546.13;5098521;27;20632;-68
2023/05/29 04:13:12;;;;;;;10.27;1.00;;;;;;;8.34;45.06;102544.38;5059824;28;20036;-71
2023/05/29 04:15:38;;;;;;;10.45;1.00;;;;;;;8.28;45.00;102550.47;5061021;28;20054;-69
2023/05/29 04:18:03;;;;;;;11.68;0.82;;;;;;;8.11;45.10;102542.75;5073340;28;20051;-68
2023/05/29 04:20:29;;;;;;;12.15;1.60;;;;;;;8.49;44.42;102548.66;5061215;28;20567;-69
2023/05/29 04:22:54;;;;;;;8.80;1.83;;;;;;;8.33;44.74;102553.91;5059328;28;20035;-69
2023/05/29 04:25:20;;;;;;;15.45;2.70;;;;;;;8.50;44.40;102553.00;5082641;28;20526;-69
2023/05/29 04:27:48;;;;;;;14.93;1.80;;;;;;;8.71;43.00;102560.72;5061130;28;20051;-69
2023/05/29 04:30:18;;;;;;;9.63;1.63;;;;;;;8.81;43.35;102556.34;5080113;27;20627;-69
2023/05/29 04:32:46;;;;;;;8.15;0.98;;;;;;;8.78;43.42;102561.56;5083044;27;20511;-71
2023/05/29 04:35:13;;;;;;;11.70;1.60;;;;;;;8.75;43.14;102566.81;5082371;27;20034;-70
2023/05/29 04:37:44;;;;;;;7.20;1.27;;;;;;;8.60;43.60;102561.63;5086449;27;20642;-72
2023/05/29 04:40:10;;;;;;;7.95;1.23;;;;;;;8.69;43.59;102564.19;5086068;27;20045;-71
2023/05/29 04:42:36;;;;;;;9.27;1.45;;;;;;;8.82;43.34;102552.84;5116137;27;20047;-74
2023/05/29 04:45:06;;;;;;;8.65;0.60;;;;;;;9.01;43.18;102555.34;5114538;27;20047;-74
2023/05/29 04:47:36;;;;;;;10.48;1.10;;;;;;;8.81;43.66;102560.69;5079893;27;20043;-72
2023/05/29 04:50:02;;;;;;;16.60;1.88;;;;;;;8.80;43.78;102559.81;5074376;28;20028;-71
2023/05/29 04:52:28;;;;;;;11.15;1.13;;;;;;;8.98;43.27;102564.94;5071592;27;20038;-73
2023/05/29 04:54:55;;;;;;;12.38;0.95;;;;;;;9.02;42.40;102564.91;5086338;27;20028;-71
2023/05/29 04:57:20;;;;;;;21.67;2.13;;;;;;;9.08;42.87;102567.50;5084536;27;20130;-70
2023/05/29 04:59:47;;;;;;;8.07;1.30;;;;;;;9.00;42.43;102572.75;5083454;27;20660;-71
2023/05/29 05:02:13;;;;;;;8.40;1.60;;;;;;;9.12;42.06;102563.97;5085754;27;20050;-70
2023/05/29 05:04:38;;;;;;;11.20;1.23;;;;;;;8.88;43.03;102563.25;5084804;27;20031;-68
2023/05/29 05:07:05;;;;;;;8.65;1.27;;;;;;;9.37;42.30;102575.09;5104275;27;20437;-68
2023/05/29 05:09:31;;;;;;;15.48;1.50;;;;;;;9.58;41.41;102568.84;5070377;27;20057;-70
2023/05/29 05:11:57;;;;;;;23.52;1.55;;;;;;;9.63;41.63;102569.66;5088529;27;20152;-70
2023/05/29 05:14:23;;;;;;;11.88;1.95;;;;;;;9.77;41.47;102567.78;5081288;27;20066;-69
2023/05/29 05:16:50;;;;;;;23.10;1.88;;;;;;;9.62;41.32;102565.31;5081665;27;20557;-66
2023/05/29 05:19:16;;;;;;;12.65;1.17;;;;;;;9.97;40.60;102574.59;5082511;27;20138;-68
2023/05/29 05:21:43;;;;;;;11.00;2.33;;;;;;;10.02;40.87;102570.19;5113890;27;20150;-65
2023/05/29 05:24:09;;;;;;;7.72;1.23;;;;;;;10.24;40.77;102572.56;5077326;27;20072;-68
2023/05/29 05:26:38;;;;;;;13.93;1.75;;;;;;;11.35;38.92;102574.53;5079218;27;20047;-70
2023/05/29 05:29:03;;;;;;;18.25;1.27;;;;;;;12.06;36.80;102561.94;5057692;27;20257;-71
2023/05/29 05:31:31;;;;;;;17.77;1.60;;;;;;;12.17;35.89;102563.50;5041855;28;20028;-68
2023/05/29 05:33:57;;;;;;;10.82;2.75;;;;;;;11.55;37.07;102568.97;5083846;27;20032;-68
2023/05/29 05:36:23;;;;;;;11.63;1.85;;;;;;;11.05;38.04;102569.75;5078309;27;20028;-68
2023/05/29 05:38:54;;;;;;;;;;;;;;;11.71;37.10;102562.59;5089919;27;20420;-69
2023/05/29 05:41:21;;;;;;;16.05;1.60;;;;;;;12.10;36.83;102570.63;5076950;27;19923;-68
2023/05/29 05:43:47;;;;;;;20.40;1.75;;;;;;;12.46;35.63;102562.91;5108852;27;20039;-69
2023/05/29 05:46:30;;;;;;;11.93;1.35;;;;;;;12.28;36.04;102572.88;5069866;28;20046;-72
2023/05/29 05:49:00;;;;;;;19.58;2.30;;;;;;;12.70;35.56;102572.88;5090710;27;20587;-69
2023/05/29 05:51:27;;;;;;;11.80;1.20;;;;;;;12.36;36.00;102569.25;5077344;28;20047;-68
2023/05/29 05:53:53;;;;;;;16.05;3.05;;;;;;;12.12;36.84;102574.06;5060879;27;20048;-70
2023/05/29 05:56:26;;;;;;;10.13;1.23;;;;;;;11.77;37.13;102574.69;5057285;28;20414;-70
2023/05/29 05:58:51;;;;;;;14.27;1.50;;;;;;;11.74;36.43;102564.28;5049186;28;20453;-71
2023/05/29 06:01:20;;;;;;;8.57;1.42;;;;;;;11.88;36.31;102578.00;5090401;27;20497;-70
2023/05/29 06:03:47;;;;;;;10.13;1.25;;;;;;;11.71;36.62;102585.28;5091288;27;20051;-71
2023/05/29 06:06:13;;;;;;;7.00;1.13;;;;;;;11.92;35.87;102586.69;5059008;28;20040;-70
2023/05/29 06:08:42;;;;;;;10.23;2.17;;;;;;;11.81;36.17;102595.59;5053663;28;20741;-71
2023/05/29 06:11:08;;;;;;;12.55;1.45;;;;;;;11.52;37.11;102596.06;5072964;27;20062;-71
2023/05/29 06:13:36;;;;;;;10.75;1.23;;;;;;;12.09;36.21;102597.72;5053577;28;20046;-73
2023/05/29 06:16:08;;;;;;;18.52;2.03;;;;;;;11.28;37.17;102602.56;5061644;28;20454;-71
2023/05/29 06:18:35;;;;;;;10.48;1.38;;;;;;;11.54;37.17;102611.78;5037612;28;20050;-72
2023/05/29 06:21:02;;;;;;;31.40;1.40;;;;;;;11.72;36.27;102606.22;5062795;28;20551;-71
2023/05/29 06:23:29;;;;;;;12.63;1.70;;;;;;;12.18;36.73;102613.28;5066677;27;20543;-78
2023/05/29 06:25:56;;;;;;;11.23;1.73;;;;;;;12.70;34.70;102607.00;5088357;27;20032;-76
2023/05/29 06:28:22;;;;;;;11.32;1.08;;;;;;;13.91;33.38;102608.50;5056111;27;20116;-77
2023/05/29 06:30:49;;;;;;;11.98;1.65;;;;;;;14.23;32.59;102609.41;5054676;28;20389;-76
2023/05/29 06:33:15;;;;;;;14.25;2.17;;;;;;;13.32;34.25;102616.13;5072672;27;20487;-75
2023/05/29 06:35:41;;;;;;;9.50;1.25;;;;;;;12.83;34.54;102612.00;5046903;28;20024;-70
2023/05/29 06:38:08;;;;;;;15.25;1.55;;;;;;;12.63;35.15;102610.63;5038969;28;20075;-70
2023/05/29 06:40:34;;;;;;;14.45;1.67;;;;;;;13.64;34.13;102611.88;5062500;28;22319;-70
2023/05/29 06:43:00;;;;;;;14.77;2.35;;;;;;;14.74;31.63;102614.06;5063532;28;20413;-71
2023/05/29 06:45:38;;;;;;;6.72;1.42;;;;;;;15.09;31.54;102612.13;5062399;28;20108;-72
2023/05/29 06:48:03;;;;;;;15.10;2.65;;;;;;;13.81;32.91;102620.19;5061768;28;20037;-72
2023/05/29 06:50:29;;;;;;;9.00;1.20;;;;;;;13.38;33.88;102620.34;5045560;28;20043;-71
2023/05/29 06:53:00;;;;;;;14.40;2.30;;;;;;;13.25;34.16;102623.28;5078069;27;20454;-70
2023/05/29 06:55:27;;;;;;;8.40;2.10;;;;;;;14.67;31.89;102617.81;5077734;28;20076;-73
2023/05/29 06:57:55;;;;;;;10.40;1.98;;;;;;;14.97;31.36;102620.44;5082733;28;20036;-74
2023/05/29 07:00:22;;;;;;;13.30;2.88;;;;;;;15.33;30.61;102628.13;5072374;28;20048;-74
2023/05/29 07:02:59;;;;;;;7.43;1.67;;;;;;;16.10;28.89;102621.09;5077255;28;20044;-70
2023/05/29 07:05:26;;;;;;;18.13;1.92;;;;;;;14.80;31.42;102622.72;5105122;27;20563;-69
2023/05/29 07:07:52;;;;;;;14.68;2.20;;;;;;;13.98;32.84;102632.88;5104834;27;20039;-73
2023/05/29 07:10:19;;;;;;;13.35;1.10;;;;;;;14.26;32.08;102632.13;5075616;28;20603;-70
2023/05/29 07:12:46;;;;;;;8.95;1.83;;;;;;;13.97;32.35;102625.88;5059817;28;20040;-67
2023/05/29 07:15:11;;;;;;;12.18;1.60;;;;;;;13.49;33.51;102634.94;5078783;28;20032;-67
2023/05/29 07:17:38;;;;;;;8.45;1.80;;;;;;;13.65;33.13;102639.84;5072450;28;20472;-66
2023/05/29 07:20:14;;;;;;;16.25;1.58;;;;;;;13.77;33.07;102636.94;5061244;28;20032;-66
2023/05/29 07:22:41;;;;;;;18.38;1.50;;;;;;;13.80;32.59;102633.34;5073643;28;20067;-66
2023/05/29 07:25:08;;;;;;;8.02;1.50;;;;;;;14.64;31.93;102630.22;5078052;28;20126;-72
2023/05/29 07:27:35;;;;;;;5.93;1.30;;;;;;;14.86;31.89;102622.53;5056578;27;20047;-66
2023/05/29 07:30:03;;;;;;;10.52;1.10;;;;;;;15.38;31.79;102626.19;5077061;28;20278;-68
2023/05/29 07:32:29;;;;;;;10.07;2.10;;;;;;;15.29;32.35;102626.47;5061929;27;20798;-67
2023/05/29 07:34:55;;;;;;;9.57;1.23;;;;;;;15.52;32.17;102623.09;5055920;28;20031;-66
2023/05/29 07:37:22;;;;;;;16.00;1.58;;;;;;;15.32;31.37;102629.84;5055696;28;20520;-64
2023/05/29 07:39:47;;;;;;;14.85;1.48;;;;;;;13.47;34.02;102636.75;5110578;27;20145;-63
2023/05/29 07:42:33;;;;;;;13.15;1.83;;;;;;;13.79;33.61;102626.38;5070479;27;20070;-64
2023/05/29 07:44:58;;;;;;;17.38;1.83;;;;;;;13.68;33.81;102634.53;5043799;28;20036;-67
2023/05/29 07:47:24;;;;;;;12.18;1.25;;;;;;;13.41;34.63;102642.16;5045437;28;20040;-65
2023/05/29 07:49:51;;;;;;;11.05;1.98;;;;;;;14.38;32.97;102637.03;5078090;28;20081;-67
2023/05/29 07:52:19;;;;;;;16.40;1.67;;;;;;;13.74;33.73;102650.13;5071553;27;20055;-65
2023/05/29 07:54:45;;;;;;;6.50;1.48;;;;;;;13.41;34.42;102649.19;5055990;28;20025;-66
2023/05/29 07:57:12;;;;;;;10.77;1.38;;;;;;;15.25;31.84;102641.50;5056089;28;20074;-64
2023/05/29 07:59:41;;;;;;;12.05;1.73;;;;;;;16.38;29.77;102636.81;5069541;28;20036;-70
2023/05/29 08:02:08;;;;;;;10.82;1.98;;;;;;;16.74;29.19;102654.81;5069967;28;20032;-67
2023/05/29 08:05:09;;;;;;;24.13;3.00;;;;;;;16.75;28.85;102646.00;5024991;28;20512;-67
2023/05/29 08:07:36;;;;;;;12.30;1.80;;;;;;;16.41;30.16;102636.66;5042656;28;20800;-67
2023/05/29 08:10:02;;;;;;;8.40;1.13;;;;;;;15.62;31.12;102650.88;5072576;28;20451;-65
2023/05/29 08:12:28;;;;;;;10.77;2.10;;;;;;;14.65;32.51;102650.34;5046343;27;21023;-65
2023/05/29 08:14:56;;;;;;;11.40;1.80;;;;;;;16.01;30.26;102647.81;5073898;28;20034;-67
2023/05/29 08:17:22;;;;;;;13.82;1.38;;;;;;;16.00;30.26;102652.22;5073872;27;20694;-66
2023/05/29 08:19:47;;;;;;;7.85;1.88;;;;;;;14.75;32.14;102652.66;5055466;28;20037;-65
2023/05/29 08:22:15;;;;;;;18.23;2.33;;;;;;;14.11;32.86;102654.44;5053553;28;20059;-66
2023/05/29 08:24:40;;;;;;;7.80;1.73;;;;;;;15.10;31.62;102658.66;5074347;28;20046;-67
2023/05/29 08:27:06;;;;;;;8.43;1.15;;;;;;;15.97;30.12;102665.50;5074700;28;20486;-66
2023/05/29 08:29:32;;;;;;;13.27;1.85;;;;;;;17.18;29.46;102652.25;5051046;27;20720;-66
2023/05/29 08:31:58;;;;;;;17.17;2.13;;;;;;;17.61;28.08;102647.88;5061459;28;20040;-67
2023/05/29 08:34:23;;;;;;;11.77;1.83;;;;;;;15.99;29.89;102660.16;5055234;28;20564;-65
2023/05/29 08:36:51;;;;;;;14.50;1.38;;;;;;;14.61;31.60;102675.00;5039004;28;20119;-66
2023/05/29 08:39:17;;;;;;;9.10;1.42;;;;;;;13.30;34.53;102670.44;5054482;28;20060;-67
2023/05/29 08:41:53;;;;;;;12.95;1.38;;;;;;;14.31;33.06;102667.06;5050280;28;20028;-70
2023/05/29 08:44:22;;;;;;;11.82;1.67;;;;;;;16.71;30.12;102660.22;5051151;28;20146;-68
2023/05/29 08:46:54;;;;;;;13.25;2.35;;;;;;;16.54;30.00;102666.13;5052294;28;20113;-68
2023/05/29 08:49:22;;;;;;;13.68;1.50;;;;;;;15.00;31.73;102661.59;5051508;28;20048;-67
2023/05/29 08:52:02;;;;;;;13.45;1.35;;;;;;;16.10;30.26;102673.84;5052737;28;20032;-68
2023/05/29 08:54:31;;;;;;;8.27;1.27;;;;;;;17.19;28.96;102661.03;5051659;28;20056;-68
2023/05/29 08:56:58;;;;;;;11.10;1.50;;;;;;;17.67;28.23;102654.72;5050766;28;20452;-70
2023/05/29 08:59:25;;;;;;;13.65;1.58;;;;;;;18.14;28.32;102648.25;5050814;27;20052;-66
2023/05/29 09:01:50;;;;;;;6.00;1.17;;;;;;;17.85;27.53;102658.34;5068319;28;20032;-69
2023/05/29 09:04:16;;;;;;;6.55;0.82;;;;;;;17.68;27.87;102647.63;5051124;28;20059;-70
2023/05/29 09:06:42;;;;;;;18.08;2.30;;;;;;;17.36;28.79;102665.66;5051652;28;20046;-70
2023/05/29 09:09:09;;;;;;;18.33;1.52;;;;;;;17.96;27.76;102669.34;5059404;28;20048;-68
2023/05/29 09:11:36;;;;;;;7.70;2.17;;;;;;;16.26;29.94;102671.53;5045539;28;20169;-68
2023/05/29 09:14:03;;;;;;;14.80;1.92;;;;;;;15.82;30.71;102673.94;5049194;28;20043;-68
2023/05/29 09:16:28;;;;;;;12.93;1.73;;;;;;;15.91;30.91;102673.59;5052379;28;20271;-68
2023/05/29 09:19:06;;;;;;;8.75;1.30;;;;;;;16.46;29.90;102669.97;5050404;28;20040;-69
2023/05/29 09:21:36;;;;;;;9.57;1.40;;;;;;;16.52;30.20;102672.38;5053521;28;20379;-71
2023/05/29 09:24:05;;;;;;;7.78;1.27;;;;;;;17.61;28.06;102668.19;5049873;28;20540;-71
2023/05/29 09:26:31;;;;;;;14.32;1.90;;;;;;;16.69;29.36;102656.78;5062530;28;20066;-69
2023/05/29 09:28:58;;;;;;;11.05;1.50;;;;;;;15.92;31.30;102664.78;5064792;28;20087;-71
2023/05/29 09:31:24;;;;;;;13.00;1.45;;;;;;;15.59;30.88;102665.00;5058459;28;20504;-70
2023/05/29 09:33:50;;;;;;;12.15;1.88;;;;;;;15.66;31.87;102662.16;5051050;28;20051;-71
2023/05/29 09:36:22;;;;;;;8.82;1.20;;;;;;;15.64;31.99;102674.50;5053447;28;20873;-70
2023/05/29 09:38:49;;;;;;;11.93;1.42;;;;;;;15.22;31.90;102680.28;5051719;28;20612;-69
2023/05/29 09:41:22;;;;;;;18.23;1.92;;;;;;;14.63;33.18;102673.19;5051544;28;20036;-71
2023/05/29 09:43:48;;;;;;;10.95;1.63;;;;;;;14.56;33.32;102677.78;5056300;28;20120;-72
2023/05/29 09:46:17;;;;;;;15.23;1.80;;;;;;;14.38;33.45;102673.88;5084482;27;20040;-69
2023/05/29 09:48:42;;;;;;;10.60;1.67;;;;;;;14.96;32.23;102671.34;5050611;28;20614;-70
2023/05/29 09:51:19;;;;;;;11.63;2.08;;;;;;;15.48;32.34;102671.53;5062271;28;20033;-73
2023/05/29 09:53:46;;;;;;;15.63;2.42;;;;;;;16.01;31.70;102663.63;5083569;27;20082;-71
2023/05/29 09:56:15;;;;;;;15.13;2.28;;;;;;;16.18;31.57;102668.31;5057164;28;20066;-72
2023/05/29 09:58:45;;;;;;;12.82;2.00;;;;;;;16.42;30.44;102659.53;5061032;28;20040;-68
2023/05/29 10:01:12;;;;;;;11.88;1.88;;;;;;;16.41;30.91;102667.50;5056976;28;20534;-67
2023/05/29 10:03:39;;;;;;;11.77;2.22;;;;;;;15.68;31.96;102669.09;5055405;28;20043;-70
2023/05/29 10:06:08;;;;;;;14.02;2.17;;;;;;;15.42;31.50;102669.97;5058130;28;20025;-69
2023/05/29 10:08:39;;;;;;;17.02;1.50;;;;;;;15.50;31.43;102673.19;5051443;28;20044;-69
2023/05/29 10:11:09;;;;;;;22.17;1.97;;;;;;;15.00;33.17;102678.25;5051970;28;20096;-69
2023/05/29 10:13:41;;;;;;;13.38;1.13;;;;;;;15.25;32.75;102672.25;5082137;27;20313;-67
2023/05/29 10:16:14;;;;;;;12.18;2.33;;;;;;;15.16;32.27;102673.38;5049056;28;20501;-68
2023/05/29 10:18:49;;;;;;;6.93;1.13;;;;;;;15.67;31.83;102674.44;5060555;28;20113;-68
2023/05/29 10:21:15;;;;;;;12.55;1.83;;;;;;;15.93;31.38;102671.78;5069422;28;20067;-68
2023/05/29 10:23:47;;;;;;;15.20;1.67;;;;;;;15.70;32.30;102661.16;5068438;27;20760;-68
2023/05/29 10:26:21;;;;;;;;;;;;;;;15.52;32.61;102673.16;5072359;28;20806;-69
2023/05/29 10:29:03;;;;;;;13.32;1.63;;;;;;;15.68;31.60;102676.16;5068488;27;19924;-68
2023/05/29 10:31:38;;;;;;;13.77;1.98;;;;;;;15.56;32.72;102675.63;5065175;28;20733;-69
2023/05/29 10:34:41;;;;;;;10.45;1.45;;;;;;;15.47;32.36;102657.50;5069656;27;20055;-71
2023/05/29 10:37:17;;;;;;;8.95;1.55;;;;;;;15.56;31.14;102657.19;5058684;27;20044;-71
2023/05/29 10:39:43;;;;;;;11.15;1.40;;;;;;;15.89;31.18;102656.97;5049317;28;20079;-70
2023/05/29 10:42:43;;;;;;;8.82;1.40;;;;;;;15.52;31.70;102655.56;5069075;27;20032;-71
2023/05/29 10:45:09;;;;;;;12.40;2.42;;;;;;;15.45;31.60;102654.03;5068105;28;20508;-71
2023/05/29 10:47:34;;;;;;;13.75;2.13;;;;;;;15.33;32.60;102650.03;5062668;27;20113;-70
2023/05/29 10:50:01;;;;;;;8.88;1.30;;;;;;;15.79;32.28;102667.00;5069201;28;20580;-67
2023/05/29 10:52:33;;;;;;;11.80;1.55;;;;;;;15.55;32.29;102660.75;5068318;27;20060;-70
2023/05/29 10:55:00;;;;;;;7.90;1.40;;;;;;;15.47;31.19;102662.75;5067271;28;20527;-69
2023/05/29 10:57:28;;;;;;;13.35;1.73;;;;;;;15.71;31.33;102655.81;5052263;27;20560;-67
2023/05/29 11:00:11;;;;;;;12.73;1.38;;;;;;;15.70;31.23;102667.25;5068348;28;20066;-66
2023/05/29 11:02:38;;;;;;;12.02;1.70;;;;;;;15.74;31.20;102666.25;5067616;28;20043;-70
2023/05/29 11:05:06;;;;;;;7.32;1.42;;;;;;;15.50;31.35;102662.66;5076118;28;20055;-67
2023/05/29 11:07:33;;;;;;;12.95;1.40;;;;;;;15.13;32.15;102668.22;5067073;27;20127;-68
2023/05/29 11:10:13;;;;;;;13.68;2.33;;;;;;;15.32;31.21;102663.25;5075545;28;20058;-67
2023/05/29 11:12:58;;;;;;;13.38;1.73;;;;;;;15.75;31.78;102661.84;5065093;27;20509;-67
2023/05/29 11:15:24;;;;;;;8.80;2.60;;;;;;;16.04;32.50;102673.22;5067439;28;20032;-68
2023/05/29 11:17:50;;;;;;;15.10;1.08;;;;;;;15.30;32.58;102665.94;5065079;27;20077;-68
2023/05/29 11:20:20;;;;;;;14.40;1.92;;;;;;;15.16;32.94;102668.97;5067249;28;20247;-69
2023/05/29 11:22:46;;;;;;;9.55;1.05;;;;;;;16.36;31.38;102659.75;5047556;27;20039;-68
2023/05/29 11:25:14;;;;;;;14.77;1.27;;;;;;;16.12;31.63;102672.03;5077938;27;20497;-71
2023/05/29 11:27:44;;;;;;;7.25;0.98;;;;;;;16.21;31.16;102663.78;5070396;27;20044;-68
2023/05/29 11:30:10;;;;;;;12.13;1.67;;;;;;;15.99;30.98;102668.06;5068246;28;20043;-69